• Join FlightAware (Why Join?)
  • Login
  • US Flag 
04:17PM EDT


 

Airport Tracker/Info


-or-


 

Live Flight TrackerFlight Track Log ✈ N561DA ✈ 02-May-2013 ✈ KADS - KBUR

Flight Track Log - Related Links

Times and Time Zones

All times are in EDT time to prevent confusion due to time zone crossing. See the N561DA flight status page for this flight to view local times or setup timezone preferences in your user account.

Time Position Orientation Groundspeed Altitude Reporting Facility
EDT Latitude Longitude Course Direction KTS MPH feet Rate Location/Type
08:05PM 32.9833 -96.8333 320° Northwest 145 167 1,400  Level Dallas / Fort Worth TRACON
08:06PM 33.0167 -96.8667 320° Northwest 184 212 3,800 1,380 Climbing Dallas / Fort Worth TRACON
08:07PM 33.0667 -96.9167 320° Northwest 270 311 4,200 1,740 Climbing Dallas / Fort Worth TRACON
08:08PM 33.1000 -97.0000 296° West 261 300 7,300 2,880 Climbing Dallas / Fort Worth TRACON
08:09PM 33.1439 -97.0858 301° West 472 543 10,300 2,700 Climbing Fort Worth Center
08:10PM 33.1525 -97.1703 277° West 369 425 13,000 2,940 Climbing Fort Worth Center
08:11PM 33.1403 -97.2719 262° West 298 343 16,200 2,700 Climbing Fort Worth Center
08:12PM 33.1319 -97.3539 263° West 284 327 18,400 2,100 Climbing Fort Worth Center
08:13PM 33.1214 -97.4506 263° West 277 319 20,500 1,440 Climbing Fort Worth Center
08:14PM 33.1108 -97.5425 262° West 291 335 21,300 900 Climbing Fort Worth Center
08:15PM 33.1003 -97.6492 263° West 318 366 22,400 1,260 Climbing Fort Worth Center
08:16PM 33.1000 -97.7656 270° West 333 383 23,900 1,380 Climbing Fort Worth Center
08:17PM 33.1331 -97.8600 293° West 328 377 25,200 1,500 Climbing Fort Worth Center
08:18PM 33.1639 -97.9694 289° West 330 380 26,900 1,500 Climbing Fort Worth Center
08:19PM 33.1950 -98.0614 292° West 330 380 28,300 1,560 Climbing Fort Worth Center
08:20PM 33.2297 -98.1708 291° West 325 374 30,100 1,560 Climbing Fort Worth Center
08:21PM 33.2583 -98.2681 289° West 325 374 31,500 1,440 Climbing Fort Worth Center
08:22PM 33.2889 -98.3653 291° West 319 367 33,000 1,260 Climbing Fort Worth Center
08:23PM 33.3133 -98.4400 291° West 311 358 34,100 1,140 Climbing Fort Worth Center
08:24PM 33.3458 -98.5525 289° West 298 343 35,300 1,140 Climbing Fort Worth Center
08:25PM 33.3783 -98.6472 292° West 303 349 36,400 900 Climbing Fort Worth Center
08:26PM 33.4067 -98.7422 290° West 303 349 37,200 720 Climbing Fort Worth Center
08:27PM 33.4369 -98.8372 291° West 308 354 37,900 600 Climbing Fort Worth Center
08:28PM 33.4650 -98.9347 289° West 308 354 38,400 600 Climbing Fort Worth Center
08:29PM 33.4969 -99.0325 291° West 308 354 39,200 780 Climbing Fort Worth Center
08:30PM 33.5250 -99.1278 289° West 308 354 40,000 360 Climbing Fort Worth Center
08:31PM 33.5528 -99.2231 289° West 308 354 40,000  Level Fort Worth Center
08:32PM 33.5847 -99.3208 291° West 313 360 40,000  Level Fort Worth Center
08:33PM 33.6144 -99.4239 289° West 313 360 40,000  Level Fort Worth Center
08:34PM 33.6317 -99.5314 281° West 319 367 40,000  Level Fort Worth Center
08:35PM 33.6442 -99.6417 278° West 331 381 40,000  Level Fort Worth Center
08:36PM 33.6547 -99.7542 276° West 337 388 40,000  Level Fort Worth Center
08:37PM 33.6672 -99.8692 277° West 343 395 40,000  Level Fort Worth Center
08:38PM 33.6794 -99.9844 277° West 349 402 40,000  Level Fort Worth Center
08:39PM 33.6894 -100.0969 276° West 355 409 40,000  Level Fort Worth Center
08:40PM 33.7017 -100.2147 277° West 355 409 40,000  Level Fort Worth Center
08:41PM 33.7136 -100.3275 277° West 355 409 40,000  Level Fort Worth Center
08:42PM 33.7256 -100.4428 277° West 355 409 40,000  Level Fort Worth Center
08:43PM 33.7372 -100.5606 277° West 355 409 40,000  Level Fort Worth Center
08:44PM 33.7489 -100.6783 277° West 355 409 40,000  Level Fort Worth Center
08:45PM 33.7581 -100.7961 275° West 355 409 40,000  Level Fort Worth Center
08:46PM 33.7717 -100.9142 278° West 358 412 40,000  Level Fort Worth Center
08:47PM 33.7808 -101.0294 275° West 358 412 40,000  Level Fort Worth Center
08:48PM 33.7925 -101.1350 278° West 363 418 40,000  Level Fort Worth Center
08:49PM 33.8031 -101.2653 276° West 363 418 40,000  Level Fort Worth Center
08:50PM 33.8122 -101.3708 276° West 363 418 40,000  Level Fort Worth Center
08:51PM 33.8247 -101.5014 277° West 363 418 40,000  Level Fort Worth Center
08:52PM 33.8361 -101.6044 278° West 363 418 40,000  Level Fort Worth Center
08:53PM 33.8483 -101.7350 276° West 363 418 40,000  Level Fort Worth Center
08:54PM 33.8592 -101.8406 277° West 363 418 40,000  Level Fort Worth Center
08:55PM 33.8689 -101.9736 275° West 363 418 40,000  Level Fort Worth Center
08:56PM 33.8772 -102.0892 275° West 363 418 40,000  Level Fort Worth Center
08:57PM 33.8875 -102.2047 276° West 358 412 40,000 60 Level Fort Worth Center
08:58PM 33.8975 -102.3203 276° West 353 406 40,200 300 Climbing Fort Worth Center
08:59PM 33.9078 -102.4336 276° West 353 406 40,700 420 Climbing Fort Worth Center
09:00PM 33.9172 -102.5558 275° West 339 390 41,200 420 Climbing Albuquerque Center
09:01PM 33.9264 -102.6631 276° West 330 380 41,700 480 Climbing Albuquerque Center
09:02PM 33.9344 -102.7656 275° West 316 364 42,200 480 Climbing Albuquerque Center
09:03PM 33.9428 -102.8697 276° West 315 362 42,700 360 Climbing Albuquerque Center
09:04PM 33.9542 -102.9906 277° West 305 351 43,000 120 Climbing Albuquerque Center
09:06PM 33.9733 -103.0892 283° West 305 351 43,000  Level Albuquerque Center
09:07PM 33.9906 -103.1892 282° West 303 349 43,000  Level Albuquerque Center
09:08PM 34.0081 -103.2947 281° West 316 364 43,000  Level Albuquerque Center
09:09PM 34.0233 -103.4042 280° West 324 373 43,000  Level Albuquerque Center
09:10PM 34.0414 -103.5097 282° West 326 375 43,000  Level Albuquerque Center
09:11PM 34.0572 -103.6200 280° West 330 380 43,000  Level Albuquerque Center
09:12PM 34.0781 -103.7506 281° West 332 382 43,000  Level Albuquerque Center
09:13PM 34.0947 -103.8631 280° West 334 384 43,000  Level Albuquerque Center
09:14PM 34.1125 -103.9728 281° West 333 383 43,000  Level Albuquerque Center
09:15PM 34.1300 -104.0839 281° West 332 382 43,000  Level Albuquerque Center
09:16PM 34.1478 -104.1931 281° West 330 380 43,000  Level Albuquerque Center
09:17PM 34.1636 -104.3047 280° West 332 382 43,000  Level Albuquerque Center
09:18PM 34.1814 -104.4183 281° West 339 390 43,000  Level Albuquerque Center
09:19PM 34.1986 -104.5317 280° West 339 390 43,000  Level Albuquerque Center
09:20PM 34.2167 -104.6433 281° West 337 388 43,000  Level Albuquerque Center
09:21PM 34.2331 -104.7589 280° West 342 394 43,000  Level Albuquerque Center
09:22PM 34.2533 -104.8917 281° West 341 392 43,000  Level Albuquerque Center
09:23PM 34.2703 -105.0083 280° West 346 398 43,000  Level Albuquerque Center
09:24PM 34.2881 -105.1250 280° West 349 402 43,000  Level Albuquerque Center
09:25PM 34.3039 -105.2400 279° West 347 399 43,000  Level Albuquerque Center
09:26PM 34.3211 -105.3544 280° West 344 396 43,000  Level Albuquerque Center
09:27PM 34.3383 -105.4703 280° West 346 398 43,000  Level Albuquerque Center
09:28PM 34.3539 -105.5844 279° West 343 395 43,000  Level Albuquerque Center
09:29PM 34.3697 -105.6983 280° West 341 392 43,000  Level Albuquerque Center
09:30PM 34.3725 -105.8150 272° West 344 396 43,000  Level Albuquerque Center
09:31PM 34.3767 -105.9308 273° West 343 395 43,000  Level Albuquerque Center
09:32PM 34.3808 -106.0483 272° West 346 398 43,000  Level Albuquerque Center
09:33PM 34.3850 -106.1647 273° West 345 397 43,000 -60 Level Albuquerque Center
09:34PM 34.3878 -106.2769 272° West 346 398 42,900  Descending Albuquerque Center
09:35PM 34.3911 -106.3944 272° West 348 400 43,000  Climbing Albuquerque Center
09:36PM 34.3956 -106.5328 272° West 345 397 43,000  Level Albuquerque Center
09:37PM 34.4006 -106.6494 273° West 344 396 43,000  Level Albuquerque Center
09:38PM 34.4031 -106.7653 272° West 345 397 43,000  Level Albuquerque Center
09:39PM 34.4069 -106.8850 272° West 351 404 43,000  Level Albuquerque Center
09:40PM 34.4106 -107.0028 272° West 353 406 43,000  Level Albuquerque Center
09:41PM 34.4136 -107.1217 272° West 349 402 43,000  Level Albuquerque Center
09:42PM 34.4164 -107.2392 272° West 349 402 43,000  Level Albuquerque Center
09:43PM 34.4197 -107.3572 272° West 349 402 43,000  Level Albuquerque Center
09:44PM 34.4225 -107.4758 272° West 352 405 43,000  Level Albuquerque Center
09:45PM 34.4258 -107.5942 272° West 349 402 43,000  Level Albuquerque Center
09:46PM 34.4281 -107.7114 271° West 349 402 43,000  Level Albuquerque Center
09:48PM 34.4311 -107.8289 272° West 349 402 43,000  Level Albuquerque Center
09:49PM 34.4336 -107.9706 271° West 349 402 43,000  Level Albuquerque Center
09:50PM 34.4356 -108.0878 271° West 349 402 43,000  Level Albuquerque Center
09:51PM 34.4389 -108.2061 272° West 350 403 43,000  Level Albuquerque Center
09:52PM 34.4411 -108.3236 271° West 350 403 43,000  Level Albuquerque Center
09:53PM 34.4425 -108.4411 271° West 349 402 43,000  Level Albuquerque Center
09:54PM 34.4444 -108.5603 271° West 350 403 43,000  Level Albuquerque Center
09:55PM 34.4467 -108.6914 271° West 349 402 43,000  Level Albuquerque Center
09:56PM 34.4486 -108.8019 271° West 346 398 43,000  Level Albuquerque Center
09:57PM 34.4492 -108.9142 270° West 346 398 43,000  Level Albuquerque Center
09:58PM 34.4517 -109.0431 271° West 345 397 43,000  Level Albuquerque Center
09:59PM 34.4531 -109.1544 271° West 345 397 43,000  Level Albuquerque Center
10:00PM 34.4544 -109.2833 271° West 343 395 43,000  Level Albuquerque Center
10:01PM 34.4547 -109.3942 270° West 343 395 43,000  Level Albuquerque Center
10:02PM 34.4550 -109.5047 270° West 344 396 43,000  Level Albuquerque Center
10:03PM 34.4569 -109.6328 271° West 342 394 43,000  Level Albuquerque Center
10:04PM 34.4575 -109.7447 270° West 344 396 43,000  Level Albuquerque Center
10:05PM 34.4578 -109.8728 270° West 342 394 43,000  Level Albuquerque Center
10:06PM 34.4656 -109.9836 275° West 343 395 43,000  Level Albuquerque Center
10:07PM 34.4747 -110.0914 276° West 338 389 43,000  Level Albuquerque Center
10:08PM 34.4844 -110.2200 275° West 341 392 43,000  Level Albuquerque Center
10:09PM 34.4925 -110.3278 275° West 339 390 43,000  Level Albuquerque Center
10:10PM 34.5008 -110.4461 275° West 345 397 43,000  Level Albuquerque Center
10:11PM 34.5114 -110.5594 276° West 343 395 43,000  Level Albuquerque Center
10:12PM 34.5200 -110.6747 275° West 337 388 43,000  Level Albuquerque Center
10:13PM 34.5236 -110.7811 272° West 331 381 43,000  Level Albuquerque Center
10:14PM 34.5308 -110.8933 274° West 333 383 43,000  Level Albuquerque Center
10:15PM 34.5389 -111.0050 275° West 333 383 43,000  Level Albuquerque Center
10:16PM 34.5472 -111.1161 275° West 333 383 43,000  Level Albuquerque Center
10:17PM 34.5553 -111.2494 274° West 333 383 43,000  Level Albuquerque Center
10:18PM 34.5647 -111.3628 276° West 338 389 43,000  Level Albuquerque Center
10:19PM 34.5708 -111.4739 274° West 334 384 43,000  Level Albuquerque Center
10:20PM 34.5789 -111.5864 275° West 336 387 43,000  Level Albuquerque Center
10:21PM 34.5858 -111.7006 274° West 339 390 43,000  Level Albuquerque Center
10:22PM 34.5931 -111.8133 274° West 340 391 43,000  Level Albuquerque Center
10:23PM 34.5994 -111.9283 274° West 341 392 43,000  Level Albuquerque Center
10:24PM 34.6083 -112.0650 275° West 341 392 43,000  Level Albuquerque Center
10:25PM 34.6147 -112.1794 274° West 342 394 43,000  Level Albuquerque Center
10:26PM 34.6222 -112.2939 275° West 342 394 43,000  Level Albuquerque Center
10:27PM 34.6292 -112.4000 275° West 344 396 43,000  Level Albuquerque Center
10:28PM 34.6356 -112.5150 274° West 344 396 43,000  Level Albuquerque Center
10:29PM 34.6433 -112.6544 274° West 345 397 43,000  Level Albuquerque Center
10:30PM 34.6497 -112.7719 274° West 348 400 43,000  Level Albuquerque Center
10:31PM 34.6564 -112.8892 274° West 348 400 43,000  Level Albuquerque Center
10:32PM 34.6633 -113.0083 274° West 352 405 43,000  Level Albuquerque Center
10:33PM 34.6681 -113.1256 273° West 350 403 43,000  Level Albuquerque Center
10:34PM 34.6747 -113.2439 274° West 351 404 43,000  Level Albuquerque Center
10:36PM 34.6800 -113.3625 273° West 353 406 43,000  Level Albuquerque Center
10:37PM 34.6864 -113.4822 274° West 353 406 43,000  Level Albuquerque Center
10:38PM 34.6917 -113.6008 273° West 354 407 43,000  Level Albuquerque Center
10:39PM 34.6978 -113.7206 274° West 355 409 43,000  Level Albuquerque Center
10:40PM 34.7042 -113.8644 273° West 356 410 43,000  Level Albuquerque Center
10:40PM 34.7078 -113.9361 274° West 356 410 43,000  Level Los Angeles Center
10:41PM 34.7144 -114.0667 274° West 357 411 43,000  Level Los Angeles Center
10:42PM 34.7194 -114.1875 273° West 359 413 43,000 -600 Level Los Angeles Center
10:43PM 34.7253 -114.3119 273° West 366 421 41,800 -1,620 Descending Los Angeles Center
10:44PM 34.7308 -114.4394 273° West 377 434 39,700 -2,520 Descending Los Angeles Center
10:45PM 34.6992 -114.5839 255° West 371 427 36,700 -2,580 Descending Los Angeles Center
10:46PM 34.6861 -114.7044 263° West 364 419 34,400 -1,320 Descending Los Angeles Center
10:48PM 34.6975 -114.8300 276° West 372 428 34,000 -240 Descending Los Angeles Center
10:49PM 34.7047 -114.9517 274° West 364 419 34,000  Level Los Angeles Center
10:50PM 34.7125 -115.0722 275° West 358 412 34,000  Level Los Angeles Center
10:51PM 34.7206 -115.1933 275° West 359 413 34,000 -720 Level Los Angeles Center
10:52PM 34.7294 -115.3211 275° West 374 430 32,600 -1,440 Descending Los Angeles Center
10:53PM 34.7372 -115.4511 274° West 382 440 31,100 -1,500 Descending Los Angeles Center
10:54PM 34.7464 -115.5825 275° West 380 437 29,500 -1,560 Descending Los Angeles Center
10:55PM 34.7533 -115.7097 274° West 379 436 28,000 -1,620 Descending Los Angeles Center
10:56PM 34.7625 -115.8681 274° West 390 449 26,200 -1,620 Descending Los Angeles Center
10:57PM 34.7708 -115.9997 274° West 390 449 24,700 -1,380 Descending Los Angeles Center
10:58PM 34.7769 -116.1278 273° West 386 444 23,400 -1,260 Descending Los Angeles Center
10:59PM 34.7850 -116.2525 275° West 375 432 22,200 -1,200 Descending Los Angeles Center
11:00PM 34.7928 -116.3767 274° West 369 425 21,000 -1,080 Descending Los Angeles Center
11:01PM 34.7958 -116.5017 272° West 371 427 20,000 -540 Descending Los Angeles Center
11:02PM 34.7814 -116.6203 262° West 356 410 20,000  Level Los Angeles Center
11:03PM 34.7708 -116.7342 264° West 341 392 20,000  Level Los Angeles Center
11:04PM 34.7569 -116.8717 263° West 341 392 20,000  Level Los Angeles Center
11:05PM 34.7439 -116.9886 262° West 346 398 20,000 -300 Level Los Angeles Center
11:06PM 34.7322 -117.1064 263° West 350 403 19,400 -900 Descending Los Angeles Center
11:07PM 34.7203 -117.2253 263° West 353 406 18,200 -1,080 Descending Los Angeles Center
11:08PM 34.7092 -117.3389 263° West 340 391 17,200 -1,020 Descending Los Angeles Center
11:09PM 34.6967 -117.4508 262° West 334 384 16,100 -1,200 Descending Los Angeles Center
11:10PM 34.6803 -117.5644 260° West 334 384 14,800 -1,200 Descending Los Angeles Center
11:11PM 34.6639 -117.6744 260° West 336 387 13,700 -1,140 Descending Los Angeles Center
11:12PM 34.6478 -117.7917 261° West 348 400 12,500 -840 Descending Los Angeles Center
11:13PM 34.6294 -117.9228 260° West 327 376 12,000 -300 Descending Los Angeles Center
11:14PM 34.6147 -118.0264 260° West 314 361 12,000 -600 Level Los Angeles Center
11:15PM 34.5994 -118.1297 260° West 311 358 10,800 -1,320 Descending Los Angeles Center
11:16PM 34.5836 -118.2397 260° West 309 356 9,300 -1,380 Descending Los Angeles Center
11:17PM 34.5683 -118.3442 260° West 316 364 8,000 -660 Descending Los Angeles Center
11:18PM 34.5475 -118.4397 255° West 298 343 8,000 -360 Level Los Angeles Center
11:19PM 34.5056 -118.5100 234° Southwest 273 314 7,300 -840 Descending Los Angeles Center
11:20PM 34.4486 -118.5756 224° Southwest 284 327 6,400 -1,080 Descending Los Angeles Center
11:21PM 34.3597 -118.6094 197° South 288 331 5,200 -1,020 Descending Los Angeles Center
11:22PM 34.3333 -118.6000 164° South 279 321 5,000 -180 Descending Southern California TRACON
11:23PM 34.2667 -118.6000 180° South 236 272 5,000 -360 Level Southern California TRACON
11:24PM 34.2167 -118.5667 151° Southeast 217 250 4,300 -960 Descending Southern California TRACON
11:25PM 34.2000 -118.5167 112° Southeast 165 190 3,100 -960 Descending Southern California TRACON
11:26PM 34.2000 -118.4667 90° East 125 144 2,400 -660 Descending Southern California TRACON
11:27PM 34.2000 -118.4333 90° East 105 121 1,800 -600 Descending Southern California TRACON
11:28PM 34.2000 -118.4000 90° East 99 114 1,300 -300 Descending Southern California TRACON
11:29PM 34.1992 -118.3736 92° East 119 137 1,300  Level Los Angeles Center
11:31PM 34.2000 -118.3500 90° East  Level FlightAware Approximate